createdAt,value
2017-12-10T00:01:07.589Z,100384.81
2017-12-10T00:03:17.726Z,100384.38
2017-12-10T00:13:43.259Z,100362.91
2017-12-10T00:15:48.567Z,100354.41
2017-12-10T00:17:50.913Z,100346.37
2017-12-10T00:19:54.755Z,100337.01
2017-12-10T00:21:56.998Z,100330.20
2017-12-10T00:24:00.222Z,100323.38
2017-12-10T00:26:05.731Z,100309.75
2017-12-10T00:28:15.053Z,100310.98
2017-12-10T00:30:17.444Z,100313.11
2017-12-10T00:32:21.271Z,100304.59
2017-12-10T00:34:24.297Z,100297.78
2017-12-10T00:36:27.250Z,100291.81
2017-12-10T00:38:31.256Z,100290.59
2017-12-10T00:40:39.800Z,100277.83
2017-12-10T00:42:41.700Z,100277.83
2017-12-10T00:44:45.793Z,100273.14
2017-12-10T00:46:48.458Z,100259.53
2017-12-10T00:48:53.318Z,100266.34
2017-12-10T00:50:55.490Z,100261.64
2017-12-10T00:52:58.969Z,100248.88
2017-12-10T00:55:00.736Z,100239.17
2017-12-10T00:57:03.714Z,100247.73
2017-12-10T01:01:39.692Z,100237.39
2017-12-10T01:03:45.350Z,100226.80
2017-12-10T01:05:48.251Z,100228.08
2017-12-10T01:07:50.791Z,100217.02
2017-12-10T01:09:54.698Z,100218.72
2017-12-10T01:12:06.250Z,100208.94
2017-12-10T01:14:21.592Z,100214.05
2017-12-10T01:16:25.599Z,100210.20
2017-12-10T01:18:28.853Z,100200.00
2017-12-10T01:20:30.751Z,100204.73
2017-12-10T01:22:32.890Z,100192.45
2017-12-10T01:24:34.822Z,100200.11
2017-12-10T01:26:38.570Z,100185.14
2017-12-10T01:28:43.785Z,100182.52
2017-12-10T01:30:45.742Z,100177.84
2017-12-10T01:32:49.590Z,100167.62
2017-12-10T01:34:54.899Z,100166.36
2017-12-10T01:36:57.878Z,100173.17
2017-12-10T01:39:00.674Z,100166.44
2017-12-10T01:41:03.564Z,100161.33
2017-12-10T01:43:08.674Z,100160.89
2017-12-10T01:45:16.017Z,100174.50
2017-12-10T01:47:19.755Z,100161.75
2017-12-10T01:49:25.509Z,100161.75
2017-12-10T01:51:31.090Z,100164.28
2017-12-10T01:53:33.293Z,100148.96
2017-12-10T01:55:35.726Z,100143.45
2017-12-10T01:57:37.765Z,100136.69
2017-12-10T01:59:39.741Z,100137.92
2017-12-10T02:01:42.829Z,100125.13
2017-12-10T02:03:47.568Z,100119.59
2017-12-10T02:05:50.274Z,100114.94
2017-12-10T02:07:53.740Z,100105.14
2017-12-10T02:09:55.731Z,100105.99
2017-12-10T02:12:04.514Z,100099.61
2017-12-10T02:16:15.229Z,100076.54
2017-12-10T02:18:18.987Z,100071.91
2017-12-10T02:20:23.905Z,100069.31
2017-12-10T02:30:39.606Z,100034.80
2017-12-10T02:33:00.354Z,100045.38
2017-12-10T02:49:39.825Z,99992.65
2017-12-10T03:08:08.590Z,99943.81
2017-12-10T03:10:11.537Z,99939.09
2017-12-10T03:12:22.460Z,99944.64
2017-12-10T03:14:25.229Z,99936.98
2017-12-10T03:24:24.572Z,99903.34
2017-12-10T03:26:39.639Z,99901.67
2017-12-10T03:29:05.978Z,99889.78
2017-12-10T03:31:21.489Z,99882.51
2017-12-10T03:33:23.832Z,99882.93
2017-12-10T03:35:26.724Z,99870.16
2017-12-10T03:37:29.036Z,99861.27
2017-12-10T03:39:32.390Z,99859.14
2017-12-10T03:41:34.785Z,99855.33
2017-12-10T03:43:37.833Z,99852.35
2017-12-10T03:45:42.739Z,99851.05
2017-12-10T03:53:59.247Z,99823.41
2017-12-10T03:56:08.002Z,99819.13
2017-12-10T04:06:11.862Z,99805.52
2017-12-10T04:08:14.573Z,99805.97
2017-12-10T04:10:20.048Z,99801.70
2017-12-10T04:12:36.433Z,99793.25
2017-12-10T04:14:38.867Z,99789.86
2017-12-10T04:19:09.845Z,99779.64
2017-12-10T04:24:08.896Z,99766.03
2017-12-10T04:26:12.898Z,99757.08
2017-12-10T04:30:22.695Z,99747.30
2017-12-10T04:32:24.879Z,99735.79
2017-12-10T04:34:28.887Z,99728.98
2017-12-10T04:38:40.479Z,99726.03
2017-12-10T04:40:45.653Z,99709.00
2017-12-10T04:42:51.073Z,99706.00
2017-12-10T04:44:53.210Z,99698.34
2017-12-10T04:46:58.581Z,99689.33
2017-12-10T04:49:00.852Z,99683.85
2017-12-10T04:52:08.690Z,99676.66
2017-12-10T04:54:19.728Z,99654.48
2017-12-10T04:56:21.873Z,99649.77
2017-12-10T04:58:26.779Z,99642.59
2017-12-10T05:03:17.374Z,99620.95
2017-12-10T05:05:27.806Z,99614.92
2017-12-10T05:07:30.964Z,99605.07
2017-12-10T05:09:35.238Z,99604.29
2017-12-10T05:11:42.644Z,99597.02
2017-12-10T05:13:45.845Z,99581.31
2017-12-10T05:17:26.769Z,99575.34
2017-12-10T05:19:31.005Z,99570.23
2017-12-10T05:23:44.323Z,99551.50
2017-12-10T05:25:49.192Z,99548.97
2017-12-10T05:27:51.688Z,99549.36
2017-12-10T05:29:53.785Z,99524.71
2017-12-10T05:31:56.693Z,99516.25
2017-12-10T05:34:00.825Z,99510.22
2017-12-10T05:36:06.256Z,99497.90
2017-12-10T05:38:09.773Z,99499.23
2017-12-10T05:40:13.195Z,99487.32
2017-12-10T05:44:44.007Z,99464.36
2017-12-10T05:46:46.660Z,99459.67
2017-12-10T05:48:51.225Z,99459.73
2017-12-10T05:50:54.228Z,99454.57
2017-12-10T05:52:58.618Z,99445.27
2017-12-10T05:55:00.990Z,99440.58
2017-12-10T05:57:03.011Z,99432.50
2017-12-10T05:59:06.498Z,99436.34
2017-12-10T06:01:11.785Z,99428.25
2017-12-10T06:03:14.832Z,99409.98
2017-12-10T06:05:23.241Z,99404.08
2017-12-10T06:07:31.670Z,99396.42
2017-12-10T06:09:58.129Z,99392.95
2017-12-10T06:12:02.731Z,99372.52
2017-12-10T06:18:45.862Z,99350.82
2017-12-10T06:23:00.676Z,99342.47
2017-12-10T06:25:05.229Z,99333.53
2017-12-10T06:27:15.857Z,99320.84
2017-12-10T06:29:20.083Z,99310.16
2017-12-10T06:31:22.566Z,99313.88
2017-12-10T06:33:30.700Z,99302.89
2017-12-10T06:37:43.830Z,99297.38
2017-12-10T06:39:46.817Z,99293.98
2017-12-10T06:41:49.528Z,99288.05
2017-12-10T06:43:51.785Z,99292.87
2017-12-10T06:58:22.034Z,99222.94
2017-12-10T07:02:43.949Z,99208.52
2017-12-10T07:05:09.860Z,99197.83
2017-12-10T07:07:12.987Z,99195.69
2017-12-10T07:11:33.508Z,99185.03
2017-12-10T07:13:35.949Z,99176.93
2017-12-10T07:15:46.259Z,99163.53
2017-12-10T07:17:51.463Z,99168.67
2017-12-10T07:19:57.439Z,99154.57
2017-12-10T07:22:11.379Z,99152.02
2017-12-10T07:24:14.283Z,99131.20
2017-12-10T07:26:16.657Z,99137.68
2017-12-10T07:28:18.962Z,99128.23
2017-12-10T07:30:26.394Z,99130.77
2017-12-10T07:32:35.969Z,99113.31
2017-12-10T07:34:41.614Z,99102.23
2017-12-10T07:43:05.821Z,99068.25
2017-12-10T07:45:10.412Z,99066.55
2017-12-10T07:47:23.199Z,99044.08
2017-12-10T07:52:12.099Z,99032.69
2017-12-10T07:54:17.359Z,99027.05
2017-12-10T07:56:23.103Z,99013.03
2017-12-10T07:58:28.748Z,99013.77
2017-12-10T08:04:38.617Z,98986.56
2017-12-10T08:06:47.054Z,98980.23
2017-12-10T08:08:50.766Z,98978.88
2017-12-10T08:10:53.694Z,98969.61
2017-12-10T08:13:07.578Z,98949.22
2017-12-10T08:19:34.952Z,98923.84
2017-12-10T08:23:58.231Z,98904.97
2017-12-10T08:26:04.707Z,98903.78
2017-12-10T08:28:58.116Z,98893.22
2017-12-10T08:31:02.396Z,98875.83
2017-12-10T08:33:06.251Z,98866.86
2017-12-10T08:35:10.269Z,98854.01
2017-12-10T08:37:12.864Z,98851.64
2017-12-10T08:41:22.837Z,98823.50
2017-12-10T08:43:25.916Z,98827.30
2017-12-10T08:45:29.487Z,98804.27
2017-12-10T08:47:31.292Z,98779.66
2017-12-10T08:49:33.817Z,98772.04
2017-12-10T08:51:38.039Z,98760.17
2017-12-10T08:53:44.305Z,98750.73
2017-12-10T08:56:37.026Z,98735.00
2017-12-10T08:58:38.978Z,98721.57
2017-12-10T09:00:41.670Z,98703.29
2017-12-10T09:02:46.594Z,98695.22
2017-12-10T09:04:50.982Z,98673.08
2017-12-10T09:06:58.861Z,98671.39
2017-12-10T09:09:06.036Z,98659.69
2017-12-10T09:11:12.661Z,98647.95
2017-12-10T09:13:17.234Z,98627.09
2017-12-10T09:15:20.824Z,98618.03
2017-12-10T09:17:22.676Z,98609.13
2017-12-10T09:21:35.458Z,98587.85
2017-12-10T09:25:01.650Z,98594.03
2017-12-10T09:29:13.795Z,98566.88
2017-12-10T09:33:34.911Z,98549.53
2017-12-10T09:35:37.840Z,98535.60
2017-12-10T09:40:02.264Z,98506.19
2017-12-10T09:42:08.872Z,98498.95
2017-12-10T09:46:24.734Z,98481.50
2017-12-10T09:48:27.557Z,98478.43
2017-12-10T09:50:30.931Z,98464.84
2017-12-10T09:52:34.925Z,98447.19
2017-12-10T09:54:41.949Z,98438.33
2017-12-10T09:58:54.875Z,98437.84
2017-12-10T10:01:06.237Z,98432.94
2017-12-10T10:03:18.498Z,98420.97
2017-12-10T10:11:24.952Z,98370.73
2017-12-10T10:13:27.128Z,98362.69
2017-12-10T10:32:08.014Z,98203.98
2017-12-10T10:35:16.537Z,98179.93
2017-12-10T10:37:19.745Z,98146.01
2017-12-10T10:39:22.780Z,98120.12
2017-12-10T10:41:28.693Z,98111.67
2017-12-10T10:44:03.050Z,98106.88
2017-12-10T10:49:10.184Z,98050.49
2017-12-10T11:44:29.017Z,97796.02
2017-12-10T11:46:31.979Z,97798.98
2017-12-10T11:48:37.750Z,97782.85
2017-12-10T11:50:41.202Z,97773.47
2017-12-10T11:52:46.950Z,97769.77
2017-12-10T11:54:50.726Z,97769.28
2017-12-10T11:56:54.402Z,97753.52
2017-12-10T11:58:58.730Z,97751.50
2017-12-10T12:01:05.498Z,97736.66
2017-12-10T12:11:29.074Z,97739.03
2017-12-10T12:15:41.247Z,97697.20
2017-12-10T12:17:47.080Z,97691.90
2017-12-10T12:19:51.819Z,97679.55
2017-12-10T12:21:56.996Z,97673.42
2017-12-10T12:24:02.414Z,97669.23
2017-12-10T12:26:13.219Z,97671.78
2017-12-10T12:28:16.899Z,97648.38
2017-12-10T12:30:20.875Z,97638.47
2017-12-10T12:32:25.529Z,97617.24
2017-12-10T12:34:29.179Z,97609.95
2017-12-10T12:36:35.030Z,97617.08
2017-12-10T12:38:42.210Z,97619.75
2017-12-10T12:40:54.251Z,97579.89
2017-12-10T12:42:56.769Z,97592.52
2017-12-10T12:45:01.830Z,97584.09
2017-12-10T12:47:04.985Z,97571.25
2017-12-10T12:49:07.591Z,97560.64
2017-12-10T12:51:13.099Z,97566.60
2017-12-10T12:53:18.563Z,97542.95
2017-12-10T12:55:24.011Z,97552.82
2017-12-10T12:57:27.995Z,97532.75
2017-12-10T12:59:32.948Z,97540.73
2017-12-10T13:01:45.409Z,97548.01
2017-12-10T13:03:54.778Z,97524.23
2017-12-10T13:05:58.776Z,97515.31
2017-12-10T13:08:03.947Z,97505.36
2017-12-10T13:10:06.253Z,97518.49
2017-12-10T13:12:09.768Z,97491.39
2017-12-10T13:22:33.102Z,97455.45
2017-12-10T13:38:29.977Z,97407.47
2017-12-10T13:40:35.761Z,97390.00
2017-12-10T13:42:39.414Z,97382.48
2017-12-10T13:44:41.901Z,97394.44
2017-12-10T13:46:43.962Z,97382.86
2017-12-10T13:48:50.053Z,97378.63
2017-12-10T13:50:55.745Z,97372.71
2017-12-10T13:52:58.372Z,97353.46
2017-12-10T13:55:00.097Z,97356.91
2017-12-10T13:57:03.638Z,97350.89
2017-12-10T13:59:05.230Z,97377.53
2017-12-10T14:01:17.252Z,97373.41
2017-12-10T14:03:21.666Z,97350.73
2017-12-10T14:05:23.256Z,97335.52
2017-12-10T14:07:28.251Z,97338.98
2017-12-10T14:09:41.103Z,97334.01
2017-12-10T14:11:46.210Z,97348.59
2017-12-10T14:13:58.789Z,97355.25
2017-12-10T14:16:00.274Z,97347.59
2017-12-10T14:18:09.162Z,97348.69
2017-12-10T14:20:11.201Z,97343.92
2017-12-10T14:24:46.285Z,97325.66
2017-12-10T14:37:49.829Z,97310.36
2017-12-10T14:39:59.504Z,97309.09
2017-12-10T14:42:04.609Z,97305.67
2017-12-10T14:44:18.563Z,97302.07
2017-12-10T14:46:30.335Z,97283.69
2017-12-10T14:48:35.269Z,97290.06
2017-12-10T14:50:38.756Z,97283.73
2017-12-10T14:52:40.405Z,97298.52
2017-12-10T14:54:45.440Z,97290.38
2017-12-10T14:56:48.548Z,97302.67
2017-12-10T14:58:56.399Z,97288.66
2017-12-10T15:01:00.490Z,97282.22
2017-12-10T15:03:06.659Z,97286.92
2017-12-10T15:05:11.679Z,97293.21
2017-12-10T15:07:14.850Z,97282.63
2017-12-10T15:09:27.701Z,97294.98
2017-12-10T15:11:36.032Z,97288.66
2017-12-10T15:13:38.396Z,97291.56
2017-12-10T15:15:40.898Z,97293.57
2017-12-10T15:17:44.638Z,97296.53
2017-12-10T15:19:46.673Z,97294.39
2017-12-10T15:21:49.551Z,97283.29
2017-12-10T15:23:58.270Z,97295.25
2017-12-10T15:26:10.683Z,97291.02
2017-12-10T15:28:15.708Z,97285.52
2017-12-10T15:30:18.424Z,97279.87
2017-12-10T15:32:26.720Z,97277.73
2017-12-10T15:34:30.363Z,97272.71
2017-12-10T15:39:09.768Z,97272.30
2017-12-10T15:41:12.113Z,97260.83
2017-12-10T15:43:16.003Z,97264.56
2017-12-10T15:45:19.713Z,97257.27
2017-12-10T15:47:21.772Z,97256.73
2017-12-10T15:49:35.419Z,97260.61
2017-12-10T15:51:39.511Z,97243.66
2017-12-10T15:53:43.926Z,97245.66
2017-12-10T15:55:48.859Z,97251.17
2017-12-10T15:57:51.743Z,97246.86
2017-12-10T16:00:00.973Z,97240.16
2017-12-10T16:02:03.530Z,97241.43
2017-12-10T16:04:06.365Z,97234.11
2017-12-10T16:06:09.732Z,97229.50
2017-12-10T16:08:13.833Z,97226.00
2017-12-10T16:10:19.777Z,97224.72
2017-12-10T16:12:23.026Z,97219.62
2017-12-10T16:14:25.729Z,97220.03
2017-12-10T16:16:33.552Z,97217.02
2017-12-10T16:18:35.720Z,97224.99
2017-12-10T16:20:45.868Z,97224.45
2017-12-10T16:22:47.826Z,97216.02
2017-12-10T16:24:49.853Z,97205.81
2017-12-10T16:27:02.918Z,97204.54
2017-12-10T16:29:10.903Z,97222.31
2017-12-10T16:31:16.553Z,97214.66
2017-12-10T16:33:19.750Z,97212.92
2017-12-10T16:35:24.237Z,97194.25
2017-12-10T16:37:26.821Z,97201.03
2017-12-10T16:39:39.951Z,97191.30
2017-12-10T16:41:52.855Z,97194.34
2017-12-10T16:43:56.805Z,97191.30
2017-12-10T16:46:06.334Z,97192.57
2017-12-10T16:48:13.907Z,97178.44
2017-12-10T16:50:17.521Z,97180.91
2017-12-10T16:52:20.790Z,97170.38
2017-12-10T16:54:26.292Z,97174.94
2017-12-10T16:56:30.959Z,97175.34
2017-12-10T16:58:33.924Z,97162.13
2017-12-10T17:00:37.977Z,97145.93
2017-12-10T17:02:40.722Z,97146.88
2017-12-10T17:04:52.932Z,97147.34
2017-12-10T17:07:00.816Z,97141.78
2017-12-10T17:09:06.395Z,97141.64
2017-12-10T17:11:18.453Z,97151.44
2017-12-10T17:13:26.936Z,97147.75
2017-12-10T17:15:34.976Z,97129.66
2017-12-10T17:17:37.964Z,97136.99
2017-12-10T17:19:40.347Z,97130.00
2017-12-10T17:21:45.987Z,97125.97
2017-12-10T17:23:50.045Z,97127.98
2017-12-10T17:25:53.254Z,97126.84
2017-12-10T17:30:22.920Z,97131.81
2017-12-10T17:32:32.447Z,97122.07
2017-12-10T17:34:38.726Z,97110.04
2017-12-10T17:36:43.935Z,97116.42
2017-12-10T17:38:51.403Z,97109.53
2017-12-10T17:40:56.891Z,97106.48
2017-12-10T17:43:06.537Z,97120.20
2017-12-10T17:45:09.022Z,97130.27
2017-12-10T17:47:22.015Z,97142.16
2017-12-10T17:49:24.987Z,97141.06
2017-12-10T17:51:30.851Z,97126.98
2017-12-10T17:53:37.499Z,97143.09
2017-12-10T17:55:40.099Z,97136.45
2017-12-10T17:57:42.561Z,97157.86
2017-12-10T17:59:45.039Z,97152.02
2017-12-10T18:01:47.760Z,97163.19
2017-12-10T18:03:49.970Z,97160.28
2017-12-10T18:05:52.371Z,97175.13
2017-12-10T18:07:54.717Z,97173.39
2017-12-10T18:09:56.992Z,97168.61
2017-12-10T18:12:00.714Z,97161.91
2017-12-10T18:14:04.431Z,97173.26
2017-12-10T18:16:07.515Z,97174.81
2017-12-10T18:18:09.728Z,97189.39
2017-12-10T18:20:11.979Z,97165.46
2017-12-10T18:22:14.493Z,97182.73
2017-12-10T18:24:17.288Z,97180.64
2017-12-10T18:26:19.778Z,97171.66
2017-12-10T18:28:22.417Z,97185.33
2017-12-10T18:30:24.785Z,97186.28
2017-12-10T18:32:27.059Z,97184.74
2017-12-10T18:36:45.854Z,97190.93
2017-12-10T18:38:48.046Z,97184.73
2017-12-10T18:40:50.854Z,97190.93
2017-12-10T18:42:52.941Z,97201.55
2017-12-10T18:44:55.738Z,97183.05
2017-12-10T18:46:57.965Z,97182.59
2017-12-10T18:49:00.948Z,97199.45
2017-12-10T18:51:03.269Z,97182.73
2017-12-10T18:53:05.282Z,97195.22
2017-12-10T18:55:07.963Z,97195.57
2017-12-10T18:57:09.812Z,97203.28
2017-12-10T18:59:12.926Z,97192.66
2017-12-10T19:01:15.229Z,97206.30
2017-12-10T19:03:17.959Z,97209.39
2017-12-10T19:05:19.930Z,97196.25
2017-12-10T19:07:22.779Z,97204.55
2017-12-10T19:09:25.295Z,97211.84
2017-12-10T19:11:27.937Z,97241.92
2017-12-10T19:13:30.746Z,97230.30
2017-12-10T19:15:32.982Z,97231.80
2017-12-10T19:17:35.043Z,97244.56
2017-12-10T19:19:37.722Z,97264.36
2017-12-10T19:21:39.893Z,97279.95
2017-12-10T19:23:42.501Z,97261.20
2017-12-10T19:25:44.937Z,97269.82
2017-12-10T19:27:47.465Z,97268.27
2017-12-10T19:29:49.907Z,97275.03
2017-12-10T19:31:52.968Z,97272.56
2017-12-10T19:33:55.444Z,97273.97
2017-12-10T19:35:57.817Z,97276.66
2017-12-10T19:38:00.252Z,97259.52
2017-12-10T19:40:03.491Z,97253.82
2017-12-10T19:42:50.002Z,97258.92
2017-12-10T19:44:53.051Z,97249.13
2017-12-10T19:46:55.763Z,97263.16
2017-12-10T19:48:57.887Z,97262.81
2017-12-10T19:51:00.377Z,97257.52
2017-12-10T19:53:02.954Z,97254.55
2017-12-10T19:55:04.902Z,97252.95
2017-12-10T19:57:06.981Z,97257.52
2017-12-10T19:59:09.563Z,97265.45
2017-12-10T20:01:18.261Z,97263.81
2017-12-10T20:03:20.819Z,97255.83
2017-12-10T20:05:22.896Z,97253.33
2017-12-10T20:07:25.633Z,97249.17
2017-12-10T20:09:27.242Z,97249.64
2017-12-10T20:11:29.894Z,97250.05
2017-12-10T20:13:32.388Z,97271.47
2017-12-10T20:15:34.980Z,97268.00
2017-12-10T20:17:37.718Z,97276.66
2017-12-10T20:19:39.991Z,97279.16
2017-12-10T20:21:42.502Z,97290.65
2017-12-10T20:23:47.682Z,97301.78
2017-12-10T20:25:49.868Z,97325.84
2017-12-10T20:27:52.953Z,97356.76
2017-12-10T20:29:55.425Z,97380.94
2017-12-10T20:31:57.812Z,97370.13
2017-12-10T20:34:00.280Z,97384.35
2017-12-10T20:44:27.682Z,97394.69
2017-12-10T20:54:34.648Z,97450.87
2017-12-10T20:56:36.820Z,97450.67
2017-12-10T20:58:39.401Z,97472.06
2017-12-10T21:00:41.938Z,97465.05
2017-12-10T21:02:44.403Z,97480.38
2017-12-10T21:04:46.603Z,97469.38
2017-12-10T21:06:49.581Z,97513.38
2017-12-10T21:08:51.927Z,97494.27
2017-12-10T21:10:54.299Z,97494.77
2017-12-10T21:12:56.860Z,97489.76
2017-12-10T21:14:58.723Z,97504.75
2017-12-10T21:19:24.044Z,97520.06
2017-12-10T21:21:26.537Z,97528.05
2017-12-10T21:23:28.906Z,97540.72
2017-12-10T21:25:31.683Z,97555.63
2017-12-10T21:27:33.867Z,97555.55
2017-12-10T21:29:35.736Z,97574.19
2017-12-10T21:34:07.673Z,97587.83
2017-12-10T21:36:10.703Z,97593.80
2017-12-10T21:38:13.084Z,97591.70
2017-12-10T21:40:15.821Z,97611.72
2017-12-10T21:42:17.907Z,97602.66
2017-12-10T21:44:20.589Z,97624.48
2017-12-10T21:46:22.663Z,97618.97
2017-12-10T21:48:25.887Z,97613.53
2017-12-10T21:50:28.391Z,97628.45
2017-12-10T21:52:31.007Z,97648.55
2017-12-10T21:54:33.303Z,97638.78
2017-12-10T22:04:57.056Z,97671.16
2017-12-10T22:06:59.644Z,97670.38
2017-12-10T22:09:01.762Z,97690.72
2017-12-10T22:11:03.896Z,97695.41
2017-12-10T22:13:06.613Z,97686.68
2017-12-10T22:15:08.829Z,97703.66
2017-12-10T22:17:11.808Z,97699.04
2017-12-10T22:19:13.865Z,97697.34
2017-12-10T22:21:16.580Z,97701.18
2017-12-10T22:23:18.915Z,97722.47
2017-12-10T22:25:20.829Z,97723.42
2017-12-10T22:27:23.551Z,97715.76
2017-12-10T22:29:25.848Z,97718.69
2017-12-10T22:31:28.087Z,97731.13
2017-12-10T22:34:26.737Z,97747.67
2017-12-10T22:36:28.941Z,97751.09
2017-12-10T22:38:31.014Z,97755.38
2017-12-10T22:40:33.496Z,97755.05
2017-12-10T22:42:35.561Z,97763.91
2017-12-10T22:44:37.816Z,97761.34
2017-12-10T22:46:40.025Z,97777.08
2017-12-10T22:48:42.032Z,97780.91
2017-12-10T22:50:44.219Z,97795.07
2017-12-10T22:52:46.628Z,97793.34
2017-12-10T22:54:49.010Z,97800.05
2017-12-10T22:56:51.106Z,97810.72
2017-12-10T22:58:53.371Z,97796.23
2017-12-10T23:00:55.438Z,97807.26
2017-12-10T23:02:57.252Z,97814.84
2017-12-10T23:13:09.429Z,97837.94
2017-12-10T23:15:13.574Z,97843.50
2017-12-10T23:17:15.720Z,97848.56
2017-12-10T23:19:17.862Z,97863.02
2017-12-10T23:21:19.930Z,97866.44
2017-12-10T23:23:21.872Z,97872.77
2017-12-10T23:25:23.749Z,97886.00
2017-12-10T23:27:25.912Z,97895.75
2017-12-10T23:29:27.758Z,97900.04
2017-12-10T23:31:29.727Z,97905.67
2017-12-10T23:33:31.908Z,97895.51
2017-12-10T23:37:53.571Z,97897.60
2017-12-10T23:39:55.223Z,97897.94
2017-12-10T23:41:57.665Z,97908.15
2017-12-10T23:43:59.542Z,97922.61
2017-12-10T23:46:01.900Z,97935.66
2017-12-10T23:48:03.855Z,97942.05
2017-12-10T23:50:06.017Z,97944.59
2017-12-10T23:54:26.846Z,97960.78
2017-12-10T23:56:29.015Z,97970.17
2017-12-10T23:58:31.384Z,97985.86
